Time;durP1;ratioP1;P1;durP2;ratioP2;P2;SDS_P1;SDS_P2;PMS_P1;PMS_P2;Temp;Humidity;BMP_temperature;BMP_pressure;BME280_temperature;BME280_humidity;BME280_pressure;Samples;Min_cycle;Max_cycle;Signal;HPM_P1;HPM_P2
2024/04/16 00:01:03;;;;;;;10.95;3.17;;;17.70;86.00;;;;;;4478301;26;20003;-56
2024/04/16 00:03:05;;;;;;;9.48;3.75;;;17.80;85.90;;;;;;4479249;26;20128;-57
2024/04/16 00:05:06;;;;;;;8.85;3.10;;;17.80;86.00;;;;;;4478341;26;20442;-57
2024/04/16 00:07:08;;;;;;;4.50;2.47;;;17.80;86.40;;;;;;4478789;26;20016;-59
2024/04/16 00:09:09;;;;;;;5.95;2.92;;;17.80;86.90;;;;;;4479022;26;20015;-56
2024/04/16 00:11:10;;;;;;;6.25;3.10;;;17.80;87.40;;;;;;4478260;26;20072;-58
2024/04/16 00:13:11;;;;;;;9.70;3.20;;;17.80;88.00;;;;;;4479338;26;20003;-58
2024/04/16 00:15:13;;;;;;;7.25;3.25;;;17.80;89.60;;;;;;4477901;26;20011;-56
2024/04/16 00:17:14;;;;;;;6.68;3.10;;;17.80;90.10;;;;;;4479180;26;20011;-58
2024/04/16 00:19:15;;;;;;;8.05;3.13;;;17.70;90.60;;;;;;4477231;26;20011;-57
2024/04/16 00:21:17;;;;;;;5.95;3.15;;;17.70;90.80;;;;;;4478985;26;20007;-58
2024/04/16 00:23:18;;;;;;;6.80;2.97;;;17.70;91.40;;;;;;4477662;26;19995;-57
2024/04/16 00:25:20;;;;;;;6.25;3.28;;;17.60;91.50;;;;;;4479211;26;20000;-58
2024/04/16 00:27:21;;;;;;;6.32;3.22;;;17.60;92.40;;;;;;4476423;26;20004;-58
2024/04/16 00:29:22;;;;;;;6.75;3.15;;;17.60;92.90;;;;;;4479402;26;20000;-59
2024/04/16 00:31:23;;;;;;;6.28;3.10;;;17.60;93.10;;;;;;4478296;26;20455;-58
2024/04/16 00:33:24;;;;;;;3.70;3.08;;;17.50;93.70;;;;;;4479356;26;20011;-59
2024/04/16 00:35:26;;;;;;;3.67;3.15;;;17.50;94.50;;;;;;4477380;26;20015;-58
2024/04/16 00:37:28;;;;;;;5.80;3.45;;;17.50;94.70;;;;;;4478881;26;20356;-58
2024/04/16 00:39:29;;;;;;;5.53;3.20;;;17.50;95.60;;;;;;4478284;26;20384;-57
2024/04/16 00:41:30;;;;;;;6.07;3.33;;;17.40;95.90;;;;;;4477546;26;20072;-59
2024/04/16 00:43:31;;;;;;;7.25;4.35;;;17.40;96.20;;;;;;4478452;26;20011;-57
2024/04/16 00:45:33;;;;;;;5.95;2.97;;;17.40;96.70;;;;;;4477763;26;20521;-58
2024/04/16 00:47:34;;;;;;;4.50;3.10;;;17.30;97.30;;;;;;4478868;26;20075;-58
2024/04/16 00:49:36;;;;;;;5.70;3.67;;;17.30;97.80;;;;;;4477161;26;20077;-59
2024/04/16 00:51:37;;;;;;;11.02;3.55;;;17.30;99.20;;;;;;4478075;26;19999;-58
2024/04/16 00:53:40;;;;;;;8.93;3.72;;;17.20;99.60;;;;;;4476748;26;20956;-58
2024/04/16 00:55:42;;;;;;;7.55;3.10;;;17.10;99.90;;;;;;4478390;26;19995;-58
2024/04/16 00:57:43;;;;;;;7.60;3.50;;;17.00;99.90;;;;;;4477238;26;20076;-59
2024/04/16 00:59:48;;;;;;;6.20;3.13;;;16.90;99.90;;;;;;4479107;26;20011;-59
2024/04/16 01:01:49;;;;;;;10.65;3.10;;;16.90;99.90;;;;;;4477276;26;20083;-59
2024/04/16 01:03:51;;;;;;;4.18;2.90;;;16.90;99.90;;;;;;4478406;26;20528;-58
2024/04/16 01:05:53;;;;;;;9.55;3.60;;;16.80;99.90;;;;;;4477094;26;20045;-56
2024/04/16 01:07:54;;;;;;;3.30;3.00;;;16.70;99.90;;;;;;4478682;26;20012;-58
2024/04/16 01:09:55;;;;;;;6.03;2.95;;;16.60;99.90;;;;;;4477277;26;20076;-51
2024/04/16 01:11:58;;;;;;;5.85;3.70;;;16.60;99.90;;;;;;4477811;26;20004;-58
2024/04/16 01:13:59;;;;;;;5.72;3.45;;;16.60;99.90;;;;;;4477878;26;20523;-59
2024/04/16 01:16:01;;;;;;;10.63;3.38;;;16.60;99.90;;;;;;4477139;26;20092;-57
2024/04/16 01:18:05;;;;;;;10.68;3.13;;;16.50;99.90;;;;;;4477821;26;20015;-58
2024/04/16 01:20:07;;;;;;;8.15;3.55;;;16.50;99.90;;;;;;4477147;26;20003;-59
2024/04/16 01:22:10;;;;;;;5.72;2.47;;;16.40;99.90;;;;;;4477120;26;20400;-59
2024/04/16 01:24:11;;;;;;;7.50;3.17;;;16.30;99.90;;;;;;4476904;26;20358;-57
2024/04/16 01:26:12;;;;;;;3.78;2.67;;;16.30;99.90;;;;;;4477743;26;20015;-58
2024/04/16 01:28:13;;;;;;;3.03;2.35;;;16.20;99.90;;;;;;4476935;26;20000;-58
2024/04/16 01:30:15;;;;;;;5.22;2.60;;;16.20;99.90;;;;;;4478338;26;20000;-58
2024/04/16 01:32:16;;;;;;;4.03;2.78;;;16.20;99.90;;;;;;4476689;26;20053;-56
2024/04/16 01:34:17;;;;;;;5.43;3.33;;;16.10;99.90;;;;;;4477451;26;20460;-59
2024/04/16 01:36:18;;;;;;;4.32;2.53;;;16.10;99.90;;;;;;4477541;26;20011;-58
2024/04/16 01:38:20;;;;;;;5.72;2.80;;;16.00;99.90;;;;;;4478694;26;20003;-57
2024/04/16 01:40:22;;;;;;;5.95;2.70;;;16.00;99.90;;;;;;4478311;26;20003;-59
2024/04/16 01:42:23;;;;;;;8.15;3.00;;;16.00;99.90;;;;;;4480619;26;20007;-58
2024/04/16 01:44:24;;;;;;;5.15;2.60;;;15.90;99.90;;;;;;4479694;26;20472;-58
2024/04/16 01:46:25;;;;;;;6.50;2.97;;;15.90;99.90;;;;;;4480567;26;20011;-57
2024/04/16 01:48:27;;;;;;;4.05;2.55;;;15.90;99.90;;;;;;4480873;26;20444;-58
2024/04/16 01:50:28;;;;;;;7.07;2.58;;;15.90;99.90;;;;;;4480222;26;20008;-58
2024/04/16 01:52:29;;;;;;;5.40;2.40;;;15.80;99.90;;;;;;4480269;26;20007;-59
2024/04/16 01:54:31;;;;;;;5.55;2.58;;;15.80;99.90;;;;;;4479140;26;20011;-55
2024/04/16 01:56:32;;;;;;;5.00;2.65;;;15.80;99.90;;;;;;4480917;26;20012;-58
2024/04/16 01:58:33;;;;;;;6.82;2.90;;;15.80;99.90;;;;;;4479312;26;20177;-56
2024/04/16 02:00:34;;;;;;;6.28;2.60;;;15.80;99.90;;;;;;4480805;26;20012;-59
2024/04/16 02:02:37;;;;;;;6.07;2.65;;;15.80;99.90;;;;;;4479840;26;20364;-54
2024/04/16 02:04:38;;;;;;;5.82;2.50;;;15.80;99.90;;;;;;4481471;26;20007;-55
2024/04/16 02:06:39;;;;;;;5.60;3.42;;;15.80;99.90;;;;;;4479657;26;20011;-57
2024/04/16 02:08:40;;;;;;;5.45;2.55;;;15.80;99.90;;;;;;4481089;26;20408;-58
2024/04/16 02:10:51;;;;;;;5.25;2.60;;;15.80;99.90;;;;;;4479601;26;20342;-55
2024/04/16 02:12:52;;;;;;;6.40;2.45;;;15.80;99.90;;;;;;4480924;26;20388;-56
2024/04/16 02:14:54;;;;;;;3.95;2.38;;;15.80;99.90;;;;;;4479500;26;20008;-56
2024/04/16 02:16:56;;;;;;;7.40;2.90;;;15.70;99.90;;;;;;4480375;26;20080;-58
2024/04/16 02:18:57;;;;;;;5.32;3.08;;;15.70;99.90;;;;;;4479468;26;20075;-60
2024/04/16 02:20:58;;;;;;;5.40;3.25;;;15.70;99.90;;;;;;4479442;26;20012;-52
2024/04/16 02:22:59;;;;;;;3.58;2.35;;;15.70;99.90;;;;;;4479650;26;20011;-57
2024/04/16 02:25:01;;;;;;;5.65;2.47;;;15.60;99.90;;;;;;4478283;26;20053;-58
2024/04/16 02:27:02;;;;;;;8.80;2.90;;;15.60;99.90;;;;;;4479422;26;20008;-56
2024/04/16 02:29:04;;;;;;;4.60;2.60;;;15.60;99.90;;;;;;4479218;26;20052;-57
2024/04/16 02:31:05;;;;;;;5.63;3.45;;;15.60;99.90;;;;;;4479621;26;20000;-57
2024/04/16 02:33:06;;;;;;;5.93;2.80;;;15.60;99.90;;;;;;4479419;26;20015;-57
2024/04/16 02:35:08;;;;;;;7.18;2.80;;;15.60;99.90;;;;;;4479894;26;20000;-60
2024/04/16 02:37:10;;;;;;;12.95;5.82;;;15.60;99.90;;;;;;4477825;26;20091;-59
2024/04/16 02:39:11;;;;;;;7.25;4.97;;;15.60;99.90;;;;;;4480106;26;19999;-58
2024/04/16 02:41:12;;;;;;;15.13;6.20;;;15.50;99.90;;;;;;4478875;26;20008;-57
2024/04/16 02:43:13;;;;;;;4.55;4.00;;;15.50;99.90;;;;;;4479754;26;20072;-58
2024/04/16 02:45:15;;;;;;;9.18;3.70;;;15.50;99.90;;;;;;4479514;26;20000;-57
2024/04/16 02:47:16;;;;;;;6.90;3.03;;;15.40;99.90;;;;;;4480533;26;20844;-58
2024/04/16 02:49:17;;;;;;;4.22;2.67;;;15.40;99.90;;;;;;4478657;26;20508;-58
2024/04/16 02:51:18;;;;;;;6.97;3.13;;;15.30;99.90;;;;;;4479657;26;20071;-58
2024/04/16 02:53:19;;;;;;;7.63;3.20;;;15.30;99.90;;;;;;4479258;26;20393;-57
2024/04/16 02:55:22;;;;;;;4.43;2.30;;;15.30;99.90;;;;;;4478511;26;20456;-59
2024/04/16 02:57:23;;;;;;;6.68;3.22;;;15.30;99.90;;;;;;4480566;26;20012;-58
2024/04/16 02:59:24;;;;;;;5.00;2.65;;;15.30;99.90;;;;;;4478617;26;20018;-58
2024/04/16 03:01:25;;;;;;;5.85;3.03;;;15.20;99.90;;;;;;4479202;26;20007;-59
2024/04/16 03:03:27;;;;;;;9.95;3.00;;;15.20;99.90;;;;;;4478930;26;20313;-60
2024/04/16 03:05:28;;;;;;;5.28;3.20;;;15.10;99.90;;;;;;4480553;26;19999;-58
2024/04/16 03:07:29;;;;;;;10.02;3.47;;;15.10;99.90;;;;;;4478712;26;20007;-56
2024/04/16 03:09:30;;;;;;;11.23;3.60;;;15.00;99.90;;;;;;4479784;26;20076;-59
2024/04/16 03:11:31;;;;;;;6.78;2.97;;;14.90;99.90;;;;;;4478733;26;20435;-59
2024/04/16 03:13:33;;;;;;;9.85;3.60;;;14.90;99.90;;;;;;4479208;26;20011;-55
2024/04/16 03:15:34;;;;;;;10.20;3.65;;;14.80;99.90;;;;;;4478825;26;20076;-57
2024/04/16 03:17:37;;;;;;;9.13;3.40;;;14.70;99.90;;;;;;4479847;26;19995;-59
2024/04/16 03:19:38;;;;;;;15.55;3.90;;;14.60;99.90;;;;;;4478547;26;20075;-56
2024/04/16 03:21:39;;;;;;;7.55;3.42;;;14.60;99.90;;;;;;4479268;26;20003;-58
2024/04/16 03:23:40;;;;;;;6.88;3.35;;;14.50;99.90;;;;;;4479294;26;20381;-58
2024/04/16 03:25:42;;;;;;;10.05;3.50;;;14.50;99.90;;;;;;4478609;26;20396;-58
2024/04/16 03:27:44;;;;;;;7.53;3.55;;;14.40;99.90;;;;;;4478302;26;20003;-56
2024/04/16 03:29:45;;;;;;;10.73;3.70;;;14.30;99.90;;;;;;4477953;26;19999;-57
2024/04/16 03:31:46;;;;;;;8.43;3.63;;;14.30;99.90;;;;;;4479159;26;20007;-57
2024/04/16 03:33:47;;;;;;;9.77;3.37;;;14.20;99.90;;;;;;4476498;26;20003;-57
2024/04/16 03:35:53;;;;;;;9.75;3.97;;;14.20;99.90;;;;;;4480026;26;20057;-57
2024/04/16 03:37:55;;;;;;;6.30;3.60;;;14.10;99.90;;;;;;4478090;26;19996;-55
2024/04/16 03:39:56;;;;;;;7.70;3.58;;;14.00;99.90;;;;;;4479285;26;20080;-57
2024/04/16 03:41:57;;;;;;;11.90;3.97;;;14.00;99.90;;;;;;4477997;26;20007;-60
2024/04/16 03:43:58;;;;;;;5.93;3.43;;;14.00;99.90;;;;;;4478937;26;19999;-58
2024/04/16 03:46:00;;;;;;;9.13;3.60;;;13.90;99.90;;;;;;4478440;26;20512;-58
2024/04/16 03:48:01;;;;;;;9.60;3.27;;;13.80;99.90;;;;;;4479243;26;20068;-57
2024/04/16 03:50:02;;;;;;;7.90;2.80;;;13.80;99.90;;;;;;4477696;26;20015;-62
2024/04/16 03:52:04;;;;;;;6.53;2.73;;;13.70;99.90;;;;;;4479056;26;20045;-58
2024/04/16 03:54:05;;;;;;;12.07;3.40;;;13.70;99.90;;;;;;4477418;26;20067;-57
2024/04/16 03:56:07;;;;;;;7.20;3.57;;;13.60;99.90;;;;;;4478760;26;20008;-57
2024/04/16 03:58:08;;;;;;;8.23;3.60;;;13.60;99.90;;;;;;4479148;26;20064;-58
2024/04/16 04:02:29;;;;;;;7.97;3.53;;;13.60;99.90;;;;;;4477297;26;20080;-61
2024/04/16 04:04:30;;;;;;;7.90;3.20;;;13.60;99.90;;;;;;4477883;26;20011;-57
2024/04/16 04:06:32;;;;;;;6.43;3.47;;;13.60;99.90;;;;;;4479335;26;20063;-59
2024/04/16 04:08:33;;;;;;;6.00;3.50;;;13.60;99.90;;;;;;4477780;26;20007;-59
2024/04/16 04:10:34;;;;;;;6.90;3.20;;;13.70;99.90;;;;;;4479034;26;20072;-57
2024/04/16 04:12:35;;;;;;;9.97;3.10;;;13.70;99.90;;;;;;4478400;26;20077;-58
2024/04/16 04:14:37;;;;;;;9.60;3.33;;;13.70;99.90;;;;;;4478699;26;20271;-57
2024/04/16 04:16:38;;;;;;;8.30;3.47;;;13.80;99.90;;;;;;4476802;26;20004;-59
2024/04/16 04:18:39;;;;;;;10.83;4.00;;;13.90;99.90;;;;;;4478481;26;20007;-57
2024/04/16 04:20:41;;;;;;;19.47;4.17;;;14.00;99.90;;;;;;4477108;26;19999;-59
2024/04/16 04:22:42;;;;;;;6.50;3.90;;;14.40;99.90;;;;;;4478327;26;19999;-58
2024/04/16 04:24:44;;;;;;;14.23;3.60;;;14.90;99.90;;;;;;4477384;26;19996;-58
2024/04/16 04:26:45;;;;;;;14.70;4.07;;;15.40;99.90;;;;;;4478893;26;20007;-58
2024/04/16 04:28:47;;;;;;;6.85;4.13;;;15.80;99.90;;;;;;4477757;26;20064;-58
2024/04/16 04:30:49;;;;;;;8.65;3.83;;;16.30;99.90;;;;;;4477682;26;20080;-57
2024/04/16 04:32:51;;;;;;;9.57;3.60;;;16.90;99.90;;;;;;4477909;26;20064;-58
2024/04/16 04:34:55;;;;;;;8.73;4.10;;;17.20;99.90;;;;;;4477406;26;20067;-55
2024/04/16 04:36:56;;;;;;;5.75;3.55;;;17.50;99.90;;;;;;4477784;26;20524;-57
2024/04/16 04:38:58;;;;;;;10.63;3.92;;;17.80;99.90;;;;;;4478410;26;20067;-58
2024/04/16 04:40:59;;;;;;;7.07;3.83;;;18.00;99.90;;;;;;4478461;26;20007;-58
2024/04/16 04:43:00;;;;;;;13.52;3.70;;;18.10;99.90;;;;;;4477628;26;20080;-58
2024/04/16 04:45:02;;;;;;;19.05;4.47;;;18.30;99.90;;;;;;4478278;26;20076;-59
2024/04/16 04:47:04;;;;;;;15.85;4.57;;;18.30;99.90;;;;;;4476378;26;19999;-57
2024/04/16 04:49:06;;;;;;;11.48;5.28;;;18.20;99.90;;;;;;4478285;26;19999;-59
2024/04/16 04:51:07;;;;;;;8.40;4.57;;;17.90;99.90;;;;;;4476350;26;19999;-58
2024/04/16 04:53:08;;;;;;;10.60;5.22;;;17.60;99.90;;;;;;4475918;26;20063;-58
2024/04/16 04:55:10;;;;;;;14.32;4.70;;;17.60;99.90;;;;;;4476532;26;19999;-59
2024/04/16 04:57:11;;;;;;;11.02;4.38;;;17.70;99.90;;;;;;4478175;26;20071;-60
2024/04/16 04:59:12;;;;;;;13.10;4.22;;;18.00;99.90;;;;;;4477233;26;20324;-57
2024/04/16 05:01:14;;;;;;;12.65;4.72;;;18.20;99.90;;;;;;4477061;26;20072;-59
2024/04/16 05:03:15;;;;;;;12.68;5.22;;;18.70;99.90;;;;;;4477312;26;20435;-57
2024/04/16 05:05:16;;;;;;;9.65;4.20;;;19.00;99.90;;;;;;4477870;26;19995;-55
2024/04/16 05:07:17;;;;;;;22.40;4.78;;;19.00;99.90;;;;;;4477598;26;20007;-60
2024/04/16 05:09:19;;;;;;;10.25;4.43;;;19.30;99.90;;;;;;4477290;26;20072;-53
2024/04/16 05:11:20;;;;;;;17.52;5.80;;;19.60;99.90;;;;;;4478088;26;20007;-59
2024/04/16 05:13:21;;;;;;;13.18;4.60;;;20.10;99.90;;;;;;4476400;26;21341;-58
2024/04/16 05:15:22;;;;;;;12.02;4.28;;;20.60;99.90;;;;;;4478205;26;20067;-56
2024/04/16 05:17:24;;;;;;;8.43;4.25;;;20.80;99.90;;;;;;4477381;26;20049;-59
2024/04/16 05:19:25;;;;;;;10.45;3.78;;;21.10;99.90;;;;;;4477946;26;19999;-55
2024/04/16 05:21:26;;;;;;;9.07;4.22;;;21.70;99.90;;;;;;4476787;26;20095;-57
2024/04/16 05:23:27;;;;;;;16.55;5.07;;;22.00;99.90;;;;;;4477254;26;20072;-56
2024/04/16 05:25:29;;;;;;;11.20;4.70;;;22.20;99.90;;;;;;4476153;26;20068;-58
2024/04/16 05:27:31;;;;;;;10.48;4.68;;;22.50;99.90;;;;;;4477733;26;20456;-59
2024/04/16 05:29:32;;;;;;;9.13;4.07;;;22.70;99.20;;;;;;4476779;26;20000;-58
2024/04/16 05:31:33;;;;;;;10.35;4.72;;;23.10;98.60;;;;;;4477090;26;20007;-57
2024/04/16 05:33:34;;;;;;;4.18;2.90;;;23.20;98.10;;;;;;4476916;26;20072;-57
2024/04/16 05:35:35;;;;;;;7.70;3.20;;;23.60;97.50;;;;;;4477118;26;21455;-60
2024/04/16 05:37:37;;;;;;;4.78;3.28;;;23.60;96.80;;;;;;4477525;26;20003;-57
2024/04/16 05:39:38;;;;;;;9.60;3.22;;;23.80;96.40;;;;;;4477015;26;20007;-60
2024/04/16 05:41:39;;;;;;;10.55;3.83;;;24.00;96.00;;;;;;4477119;26;20008;-59
2024/04/16 05:43:40;;;;;;;9.15;2.95;;;24.20;95.50;;;;;;4476642;26;20099;-59
2024/04/16 05:45:42;;;;;;;8.27;3.08;;;24.50;94.90;;;;;;4477326;26;19995;-57
2024/04/16 05:47:43;;;;;;;9.90;3.92;;;24.90;94.40;;;;;;4475455;26;20076;-58
2024/04/16 05:49:44;;;;;;;7.65;3.42;;;25.30;93.80;;;;;;4477614;26;20004;-58
2024/04/16 05:51:45;;;;;;;12.98;3.83;;;25.30;93.10;;;;;;4475351;26;20072;-59
2024/04/16 05:53:47;;;;;;;11.20;4.22;;;24.80;92.80;;;;;;4476911;26;20003;-59
2024/04/16 05:55:48;;;;;;;7.97;4.32;;;23.90;93.20;;;;;;4476204;26;19991;-59
2024/04/16 05:57:49;;;;;;;10.50;3.60;;;23.20;93.80;;;;;;4477898;26;20072;-59
2024/04/16 05:59:50;;;;;;;14.13;4.63;;;22.80;94.30;;;;;;4476661;26;19996;-60
2024/04/16 06:01:52;;;;;;;20.45;8.85;;;22.40;94.50;;;;;;4477411;26;20072;-58
2024/04/16 06:03:53;;;;;;;11.93;4.47;;;21.70;95.50;;;;;;4476168;26;20011;-59
2024/04/16 06:05:54;;;;;;;15.52;5.28;;;21.40;96.00;;;;;;4477102;26;20007;-59
2024/04/16 06:07:56;;;;;;;19.48;6.50;;;21.20;96.30;;;;;;4476305;26;20084;-59
2024/04/16 06:09:57;;;;;;;16.45;6.93;;;21.50;96.20;;;;;;4476564;26;20071;-58
2024/04/16 06:11:59;;;;;;;18.75;5.20;;;21.40;96.10;;;;;;4476960;26;20409;-58
2024/04/16 06:14:00;;;;;;;17.15;4.70;;;21.20;95.80;;;;;;4474948;26;20000;-58
2024/04/16 06:16:01;;;;;;;13.32;4.70;;;20.90;96.00;;;;;;4476897;26;20071;-58
2024/04/16 06:18:09;;;;;;;14.68;4.97;;;21.00;96.30;;;;;;4475756;26;20071;-58
2024/04/16 06:20:10;;;;;;;18.38;5.18;;;21.20;95.90;;;;;;4476881;26;20140;-59
2024/04/16 06:22:11;;;;;;;13.40;4.28;;;21.00;96.20;;;;;;4476205;26;20393;-60
2024/04/16 06:24:12;;;;;;;13.25;3.53;;;21.10;96.30;;;;;;4477415;26;20483;-59
2024/04/16 06:26:14;;;;;;;14.50;3.78;;;21.20;95.90;;;;;;4479195;26;20496;-58
2024/04/16 06:28:15;;;;;;;12.63;4.20;;;21.30;95.50;;;;;;4480337;26;20324;-58
2024/04/16 06:30:16;;;;;;;9.88;3.78;;;21.30;95.50;;;;;;4479316;26;20375;-59
2024/04/16 06:32:17;;;;;;;15.82;4.28;;;21.00;95.60;;;;;;4479464;26;20008;-60
2024/04/16 06:34:19;;;;;;;9.38;3.63;;;20.90;95.90;;;;;;4479353;26;20007;-58
2024/04/16 06:36:20;;;;;;;10.25;2.70;;;20.90;95.90;;;;;;4479829;26;20068;-57
2024/04/16 06:38:24;;;;;;;7.45;2.80;;;20.90;96.00;;;;;;4479402;26;20320;-56
2024/04/16 06:40:25;;;;;;;5.88;3.25;;;21.00;95.90;;;;;;4479792;26;20011;-59
2024/04/16 06:42:27;;;;;;;9.65;2.95;;;21.10;95.70;;;;;;4479072;26;20003;-59
2024/04/16 06:44:28;;;;;;;10.38;3.28;;;21.00;95.80;;;;;;4478888;26;20048;-57
2024/04/16 06:46:30;;;;;;;7.38;3.10;;;21.30;95.80;;;;;;4479820;26;20470;-59
2024/04/16 06:48:32;;;;;;;9.25;3.50;;;21.30;95.80;;;;;;4478677;26;20408;-59
2024/04/16 06:50:33;;;;;;;9.43;2.78;;;21.10;95.70;;;;;;4479896;26;20072;-54
2024/04/16 06:52:35;;;;;;;10.32;3.22;;;20.90;95.90;;;;;;4478555;26;20003;-59
2024/04/16 06:54:36;;;;;;;10.55;3.47;;;20.90;95.90;;;;;;4479616;26;20007;-57
2024/04/16 06:56:37;;;;;;;12.75;3.72;;;20.90;96.00;;;;;;4479002;26;20072;-59
2024/04/16 06:58:39;;;;;;;12.00;3.72;;;21.30;95.90;;;;;;4479437;26;20007;-56
2024/04/16 07:00:40;;;;;;;13.80;4.13;;;21.30;95.60;;;;;;4478314;26;20451;-57
2024/04/16 07:02:41;;;;;;;9.00;3.90;;;21.10;96.00;;;;;;4479529;26;20072;-59
2024/04/16 07:04:43;;;;;;;7.05;3.13;;;21.10;95.80;;;;;;4478376;26;20011;-58
2024/04/16 07:06:44;;;;;;;12.07;3.05;;;21.40;95.60;;;;;;4479406;26;20007;-57
2024/04/16 07:08:45;;;;;;;11.20;3.85;;;21.60;95.50;;;;;;4477900;26;20435;-58
2024/04/16 07:10:46;;;;;;;9.43;2.55;;;21.80;95.20;;;;;;4479241;26;20075;-59
2024/04/16 07:12:48;;;;;;;10.95;2.92;;;21.70;95.10;;;;;;4478419;26;20063;-56
2024/04/16 07:14:49;;;;;;;7.80;3.40;;;22.00;95.00;;;;;;4478182;26;20404;-58
2024/04/16 07:16:50;;;;;;;9.68;3.47;;;22.10;94.90;;;;;;4479157;26;20008;-58
2024/04/16 07:18:51;;;;;;;8.60;2.85;;;22.10;94.80;;;;;;4477796;26;20008;-57
2024/04/16 07:20:53;;;;;;;13.82;3.28;;;22.00;94.70;;;;;;4479379;26;20007;-57
2024/04/16 07:22:54;;;;;;;13.15;2.97;;;22.00;94.60;;;;;;4478092;26;20408;-55
2024/04/16 07:24:56;;;;;;;11.40;2.92;;;22.20;94.40;;;;;;4479299;26;20004;-56
2024/04/16 07:26:57;;;;;;;9.60;3.50;;;22.30;93.90;;;;;;4478554;26;19995;-56
2024/04/16 07:28:58;;;;;;;7.80;2.63;;;22.30;93.80;;;;;;4480079;26;20071;-57
2024/04/16 07:31:00;;;;;;;7.10;3.10;;;22.60;93.50;;;;;;4478623;26;20011;-56
2024/04/16 07:33:02;;;;;;;7.43;3.08;;;22.70;93.20;;;;;;4479578;26;20447;-58
2024/04/16 07:35:03;;;;;;;8.60;2.63;;;22.60;93.20;;;;;;4478426;26;20352;-58
2024/04/16 07:37:04;;;;;;;6.50;2.65;;;22.80;93.10;;;;;;4479085;26;20007;-59
2024/04/16 07:39:05;;;;;;;8.07;2.13;;;22.80;92.90;;;;;;4478239;26;20084;-59
2024/04/16 07:41:07;;;;;;;9.10;3.10;;;22.50;92.70;;;;;;4478869;26;19995;-58
2024/04/16 07:43:08;;;;;;;9.15;2.70;;;22.60;93.00;;;;;;4479082;26;20067;-57
2024/04/16 07:45:09;;;;;;;6.72;2.58;;;22.80;92.50;;;;;;4477838;26;20328;-59
2024/04/16 07:47:10;;;;;;;7.60;2.25;;;22.70;92.40;;;;;;4479460;26;20009;-58
2024/04/16 07:49:11;;;;;;;8.43;2.00;;;22.80;91.80;;;;;;4478268;26;20292;-60
2024/04/16 07:51:13;;;;;;;12.55;2.67;;;22.90;91.50;;;;;;4479120;26;20179;-57
2024/04/16 07:53:15;;;;;;;10.68;2.35;;;22.70;91.10;;;;;;4477993;26;20296;-60
2024/04/16 07:55:16;;;;;;;5.85;2.63;;;22.60;91.40;;;;;;4478735;26;20003;-60
2024/04/16 07:57:17;;;;;;;4.22;2.00;;;22.60;91.10;;;;;;4477369;26;20011;-58
2024/04/16 07:59:22;;;;;;;3.80;2.17;;;22.90;90.20;;;;;;4479162;26;20068;-59
2024/04/16 08:01:23;;;;;;;3.30;1.60;;;23.10;88.10;;;;;;4477481;26;20003;-58
2024/04/16 08:03:24;;;;;;;6.22;2.38;;;23.50;87.70;;;;;;4479483;26;20007;-61
2024/04/16 08:05:26;;;;;;;6.82;1.88;;;23.80;86.70;;;;;;4477086;26;20404;-57
2024/04/16 08:07:27;;;;;;;6.07;1.63;;;24.00;85.70;;;;;;4476872;26;20007;-56
2024/04/16 08:09:28;;;;;;;4.30;1.77;;;24.00;84.30;;;;;;4478300;26;20504;-59
2024/04/16 08:11:29;;;;;;;2.60;1.80;;;23.90;83.40;;;;;;4478011;26;20068;-55
2024/04/16 08:13:32;;;;;;;6.75;2.40;;;23.70;83.60;;;;;;4478417;26;20485;-58
2024/04/16 08:15:33;;;;;;;9.93;2.13;;;23.70;83.90;;;;;;4477812;26;20400;-59
2024/04/16 08:17:35;;;;;;;3.63;1.73;;;23.80;84.10;;;;;;4478848;26;20054;-58
2024/04/16 08:19:37;;;;;;;3.50;1.48;;;23.70;83.40;;;;;;4477617;26;20011;-59
2024/04/16 08:21:38;;;;;;;4.22;1.80;;;23.70;82.30;;;;;;4478616;26;20011;-56
2024/04/16 08:23:39;;;;;;;1.83;1.42;;;23.80;82.50;;;;;;4477613;26;19999;-60
2024/04/16 08:25:41;;;;;;;4.85;1.52;;;23.80;82.50;;;;;;4478826;26;20055;-58
2024/04/16 08:27:42;;;;;;;5.60;1.30;;;23.60;82.20;;;;;;4476962;26;20409;-57
2024/04/16 08:29:44;;;;;;;4.55;1.45;;;23.30;81.00;;;;;;4478715;26;20007;-57
2024/04/16 08:31:45;;;;;;;3.38;2.15;;;23.30;81.50;;;;;;4477438;26;20842;-58
2024/04/16 08:33:47;;;;;;;2.85;1.58;;;23.50;81.50;;;;;;4478878;26;20040;-59
2024/04/16 08:35:49;;;;;;;7.00;1.80;;;23.70;81.30;;;;;;4477642;26;19996;-59
2024/04/16 08:37:50;;;;;;;3.50;1.92;;;23.80;80.80;;;;;;4478103;26;20435;-59
2024/04/16 08:39:51;;;;;;;4.35;2.47;;;23.90;80.60;;;;;;4477609;26;20007;-58
2024/04/16 08:41:53;;;;;;;7.30;1.63;;;23.90;80.10;;;;;;4477646;26;20064;-61
2024/04/16 08:43:57;;;;;;;2.65;1.70;;;23.70;79.40;;;;;;4477345;26;20075;-59
2024/04/16 08:46:00;;;;;;;6.57;1.98;;;23.70;79.70;;;;;;4478113;26;20011;-59
2024/04/16 08:48:01;;;;;;;3.00;1.70;;;23.90;79.50;;;;;;4476941;26;20011;-59
2024/04/16 08:50:04;;;;;;;6.05;1.77;;;24.00;79.30;;;;;;4477522;26;20071;-59
2024/04/16 08:52:07;;;;;;;2.40;1.70;;;24.20;79.30;;;;;;4477742;26;20000;-58
2024/04/16 08:54:11;;;;;;;5.03;1.45;;;24.60;79.20;;;;;;4476916;26;20007;-59
2024/04/16 08:56:12;;;;;;;7.20;1.70;;;24.90;78.70;;;;;;4478099;26;20416;-57
2024/04/16 08:58:13;;;;;;;5.07;1.75;;;24.90;78.10;;;;;;4477226;26;20171;-57
2024/04/16 09:00:17;;;;;;;2.90;1.70;;;24.70;77.00;;;;;;4478302;26;19995;-60
2024/04/16 09:02:19;;;;;;;3.08;1.70;;;24.30;76.80;;;;;;4477063;26;20068;-58
2024/04/16 09:04:21;;;;;;;3.80;2.20;;;24.40;77.10;;;;;;4478998;26;20003;-58
2024/04/16 09:06:23;;;;;;;4.07;1.75;;;24.60;77.00;;;;;;4477209;26;20448;-59
2024/04/16 09:08:26;;;;;;;5.85;1.70;;;24.70;77.00;;;;;;4478496;26;20416;-58
2024/04/16 09:10:27;;;;;;;7.88;2.72;;;25.00;76.90;;;;;;4477458;26;20099;-58
2024/04/16 09:12:28;;;;;;;10.55;1.95;;;25.00;75.90;;;;;;4478510;26;20084;-59
2024/04/16 09:14:30;;;;;;;5.35;2.17;;;25.40;75.40;;;;;;4476855;26;20451;-57
2024/04/16 09:16:32;;;;;;;7.53;1.60;;;25.80;74.60;;;;;;4477721;26;20042;-59
2024/04/16 09:18:33;;;;;;;4.50;1.88;;;26.10;73.90;;;;;;4477018;26;20004;-57
2024/04/16 09:20:35;;;;;;;5.13;2.20;;;26.10;73.60;;;;;;4477213;26;20439;-59
2024/04/16 09:22:36;;;;;;;4.95;1.95;;;26.00;72.50;;;;;;4477313;26;20077;-59
2024/04/16 09:24:37;;;;;;;8.88;1.50;;;25.50;72.60;;;;;;4476638;26;20071;-56
2024/04/16 09:26:39;;;;;;;3.47;1.50;;;25.10;73.00;;;;;;4478468;26;20419;-59
2024/04/16 09:28:48;;;;;;;4.72;1.60;;;25.00;73.10;;;;;;4474937;26;20012;-56
2024/04/16 09:30:56;;;;;;;6.18;2.22;;;25.10;72.30;;;;;;4477698;26;20087;-59
2024/04/16 09:33:03;;;;;;;3.90;2.25;;;24.90;72.50;;;;;;4477244;26;20435;-57
2024/04/16 09:35:05;;;;;;;2.95;1.55;;;24.60;72.90;;;;;;4477805;26;20436;-59
2024/04/16 09:37:06;;;;;;;5.78;1.60;;;24.60;73.30;;;;;;4476757;26;20012;-58
2024/04/16 09:39:07;;;;;;;6.25;1.83;;;24.50;73.50;;;;;;4477845;26;19995;-58
2024/04/16 09:41:13;;;;;;;4.95;2.10;;;24.30;73.80;;;;;;4477642;26;19995;-55
2024/04/16 09:43:17;;;;;;;8.40;2.10;;;24.40;73.40;;;;;;4477782;26;20004;-58
2024/04/16 09:45:18;;;;;;;7.45;1.92;;;24.40;73.20;;;;;;4476196;26;20762;-58
2024/04/16 09:47:22;;;;;;;3.40;1.65;;;24.30;72.90;;;;;;4476992;26;20011;-56
2024/04/16 09:49:25;;;;;;;5.32;2.10;;;24.20;73.40;;;;;;4476985;26;20007;-57
2024/04/16 09:51:27;;;;;;;6.55;2.15;;;24.30;73.60;;;;;;4477908;26;20000;-60
2024/04/16 09:53:31;;;;;;;8.00;1.80;;;24.70;73.30;;;;;;4476090;26;20007;-57
2024/04/16 09:55:35;;;;;;;5.15;1.92;;;25.20;72.30;;;;;;4476819;26;20008;-59
2024/04/16 09:57:38;;;;;;;10.77;2.58;;;25.40;71.30;;;;;;4476262;26;20362;-57
2024/04/16 09:59:41;;;;;;;4.90;1.65;;;25.60;71.10;;;;;;4477397;26;20122;-57
2024/04/16 10:01:44;;;;;;;3.90;2.20;;;25.70;71.10;;;;;;4479970;26;20008;-58
2024/04/16 10:03:48;;;;;;;6.25;2.22;;;25.70;70.60;;;;;;4479183;26;20068;-59
2024/04/16 10:05:49;;;;;;;3.80;1.90;;;25.80;70.80;;;;;;4480613;26;20011;-56
2024/04/16 10:07:51;;;;;;;6.05;1.88;;;25.90;70.60;;;;;;4478517;26;20067;-58
2024/04/16 10:09:52;;;;;;;5.65;1.90;;;26.10;70.80;;;;;;4481031;26;20092;-58
2024/04/16 10:11:54;;;;;;;11.18;2.58;;;25.80;70.50;;;;;;4479071;26;20003;-59
2024/04/16 10:13:56;;;;;;;3.58;1.75;;;25.60;71.20;;;;;;4480206;26;20003;-56
2024/04/16 10:15:58;;;;;;;5.70;2.88;;;25.70;70.80;;;;;;4478801;26;20007;-58
2024/04/16 10:18:02;;;;;;;4.75;2.00;;;25.50;70.70;;;;;;4479816;26;20007;-57
2024/04/16 10:20:10;;;;;;;8.55;2.15;;;25.60;70.30;;;;;;4478520;26;20071;-60
2024/04/16 10:22:12;;;;;;;5.78;1.90;;;25.70;68.90;;;;;;4479208;26;20027;-58
2024/04/16 10:24:17;;;;;;;5.78;2.25;;;25.80;69.60;;;;;;4478095;26;19995;-58
2024/04/16 10:26:19;;;;;;;6.35;1.90;;;26.00;69.00;;;;;;4479681;26;20007;-57
2024/04/16 10:28:33;;;;;;;2.80;1.77;;;26.30;68.70;;;;;;4479247;26;19996;-54
2024/04/16 10:30:36;;;;;;;3.60;1.83;;;26.40;67.50;;;;;;4480484;26;20011;-57
2024/04/16 10:32:46;;;;;;;5.75;1.80;;;26.60;66.80;;;;;;4479017;26;20439;-58
2024/04/16 10:34:47;;;;;;;4.95;1.98;;;26.80;65.80;;;;;;4480210;26;20075;-58